sensor_id;sensor_type;location;lat;lon;timestamp;P1;durP1;ratioP1;P2;durP2;ratioP2
8187;SDS011;4135;49.184;9.722;2023-05-10T00:00:53;2.50;;;1.08;;
8187;SDS011;4135;49.184;9.722;2023-05-10T00:03:22;1.67;;;1.00;;
8187;SDS011;4135;49.184;9.722;2023-05-10T00:05:52;1.35;;;1.00;;
8187;SDS011;4135;49.184;9.722;2023-05-10T00:08:22;3.70;;;1.20;;
8187;SDS011;4135;49.184;9.722;2023-05-10T00:10:51;2.15;;;1.25;;
8187;SDS011;4135;49.184;9.722;2023-05-10T00:13:21;4.57;;;1.25;;
8187;SDS011;4135;49.184;9.722;2023-05-10T00:15:51;2.90;;;1.27;;
8187;SDS011;4135;49.184;9.722;2023-05-10T00:18:21;1.27;;;1.00;;
8187;SDS011;4135;49.184;9.722;2023-05-10T00:20:50;2.38;;;1.17;;
8187;SDS011;4135;49.184;9.722;2023-05-10T00:23:20;3.75;;;1.23;;
8187;SDS011;4135;49.184;9.722;2023-05-10T00:25:49;2.53;;;1.42;;
8187;SDS011;4135;49.184;9.722;2023-05-10T00:28:19;2.45;;;1.00;;
8187;SDS011;4135;49.184;9.722;2023-05-10T00:30:48;1.23;;;0.80;;
8187;SDS011;4135;49.184;9.722;2023-05-10T00:33:18;1.88;;;1.13;;
8187;SDS011;4135;49.184;9.722;2023-05-10T00:35:47;2.95;;;1.10;;
8187;SDS011;4135;49.184;9.722;2023-05-10T00:38:17;1.70;;;1.20;;
8187;SDS011;4135;49.184;9.722;2023-05-10T00:40:46;3.28;;;1.00;;
8187;SDS011;4135;49.184;9.722;2023-05-10T00:43:16;4.95;;;1.08;;
8187;SDS011;4135;49.184;9.722;2023-05-10T00:45:46;2.70;;;1.20;;
8187;SDS011;4135;49.184;9.722;2023-05-10T00:48:16;3.53;;;1.20;;
8187;SDS011;4135;49.184;9.722;2023-05-10T00:50:45;2.45;;;1.50;;
8187;SDS011;4135;49.184;9.722;2023-05-10T00:53:15;2.00;;;0.90;;
8187;SDS011;4135;49.184;9.722;2023-05-10T00:55:45;2.67;;;1.08;;
8187;SDS011;4135;49.184;9.722;2023-05-10T00:58:15;2.60;;;0.90;;
8187;SDS011;4135;49.184;9.722;2023-05-10T01:00:44;2.47;;;1.17;;
8187;SDS011;4135;49.184;9.722;2023-05-10T01:03:16;1.77;;;0.60;;
8187;SDS011;4135;49.184;9.722;2023-05-10T01:05:46;1.83;;;1.00;;
8187;SDS011;4135;49.184;9.722;2023-05-10T01:08:15;1.50;;;0.82;;
8187;SDS011;4135;49.184;9.722;2023-05-10T01:10:45;1.15;;;0.82;;
8187;SDS011;4135;49.184;9.722;2023-05-10T01:13:18;1.83;;;0.70;;
8187;SDS011;4135;49.184;9.722;2023-05-10T01:15:57;1.80;;;0.70;;
8187;SDS011;4135;49.184;9.722;2023-05-10T01:18:27;1.92;;;0.70;;
8187;SDS011;4135;49.184;9.722;2023-05-10T01:24:18;1.63;;;0.93;;
8187;SDS011;4135;49.184;9.722;2023-05-10T01:27:20;1.58;;;0.65;;
8187;SDS011;4135;49.184;9.722;2023-05-10T01:33:19;2.78;;;0.82;;
8187;SDS011;4135;49.184;9.722;2023-05-10T01:38:48;1.08;;;0.55;;
8187;SDS011;4135;49.184;9.722;2023-05-10T01:41:28;0.68;;;0.50;;
8187;SDS011;4135;49.184;9.722;2023-05-10T01:44:16;1.02;;;0.65;;
8187;SDS011;4135;49.184;9.722;2023-05-10T01:47:07;1.60;;;0.50;;
8187;SDS011;4135;49.184;9.722;2023-05-10T01:49:45;1.60;;;0.70;;
8187;SDS011;4135;49.184;9.722;2023-05-10T01:52:19;0.95;;;0.40;;
8187;SDS011;4135;49.184;9.722;2023-05-10T01:54:56;0.85;;;0.47;;
8187;SDS011;4135;49.184;9.722;2023-05-10T01:57:35;1.33;;;0.52;;
8187;SDS011;4135;49.184;9.722;2023-05-10T02:00:08;0.98;;;0.50;;
8187;SDS011;4135;49.184;9.722;2023-05-10T02:02:40;0.73;;;0.43;;
8187;SDS011;4135;49.184;9.722;2023-05-10T02:05:16;0.98;;;0.30;;
8187;SDS011;4135;49.184;9.722;2023-05-10T02:07:47;1.02;;;0.60;;
8187;SDS011;4135;49.184;9.722;2023-05-10T02:10:19;0.95;;;0.52;;
8187;SDS011;4135;49.184;9.722;2023-05-10T02:12:49;2.30;;;0.68;;
8187;SDS011;4135;49.184;9.722;2023-05-10T02:15:22;0.95;;;0.50;;
8187;SDS011;4135;49.184;9.722;2023-05-10T02:17:57;0.47;;;0.32;;
8187;SDS011;4135;49.184;9.722;2023-05-10T02:20:28;0.55;;;0.50;;
8187;SDS011;4135;49.184;9.722;2023-05-10T02:23:00;2.47;;;0.50;;
8187;SDS011;4135;49.184;9.722;2023-05-10T02:25:31;1.60;;;0.50;;
8187;SDS011;4135;49.184;9.722;2023-05-10T02:28:02;0.45;;;0.17;;
8187;SDS011;4135;49.184;9.722;2023-05-10T02:30:34;2.78;;;0.45;;
8187;SDS011;4135;49.184;9.722;2023-05-10T02:33:04;0.82;;;0.40;;
8187;SDS011;4135;49.184;9.722;2023-05-10T02:35:34;0.95;;;0.43;;
8187;SDS011;4135;49.184;9.722;2023-05-10T02:38:04;2.28;;;0.30;;
8187;SDS011;4135;49.184;9.722;2023-05-10T02:40:36;0.80;;;0.30;;
8187;SDS011;4135;49.184;9.722;2023-05-10T02:43:06;0.80;;;0.52;;
8187;SDS011;4135;49.184;9.722;2023-05-10T02:45:41;2.58;;;0.35;;
8187;SDS011;4135;49.184;9.722;2023-05-10T02:48:12;0.30;;;0.20;;
8187;SDS011;4135;49.184;9.722;2023-05-10T02:50:42;0.52;;;0.25;;
8187;SDS011;4135;49.184;9.722;2023-05-10T02:53:20;0.57;;;0.30;;
8187;SDS011;4135;49.184;9.722;2023-05-10T02:55:52;1.45;;;0.30;;
8187;SDS011;4135;49.184;9.722;2023-05-10T02:58:28;0.47;;;0.25;;
8187;SDS011;4135;49.184;9.722;2023-05-10T03:00:58;0.55;;;0.32;;
8187;SDS011;4135;49.184;9.722;2023-05-10T03:03:28;0.73;;;0.32;;
8187;SDS011;4135;49.184;9.722;2023-05-10T03:05:58;0.10;;;0.10;;
8187;SDS011;4135;49.184;9.722;2023-05-10T03:08:27;1.05;;;0.20;;
8187;SDS011;4135;49.184;9.722;2023-05-10T03:16:56;0.40;;;0.20;;
8187;SDS011;4135;49.184;9.722;2023-05-10T03:22:34;0.50;;;0.30;;
8187;SDS011;4135;49.184;9.722;2023-05-10T03:25:07;0.57;;;0.30;;
8187;SDS011;4135;49.184;9.722;2023-05-10T03:27:40;0.98;;;0.40;;
8187;SDS011;4135;49.184;9.722;2023-05-10T03:30:12;2.17;;;0.50;;
8187;SDS011;4135;49.184;9.722;2023-05-10T03:32:42;0.22;;;0.20;;
8187;SDS011;4135;49.184;9.722;2023-05-10T03:35:12;0.75;;;0.25;;
8187;SDS011;4135;49.184;9.722;2023-05-10T03:37:44;0.52;;;0.20;;
8187;SDS011;4135;49.184;9.722;2023-05-10T03:40:14;0.45;;;0.28;;
8187;SDS011;4135;49.184;9.722;2023-05-10T03:42:43;0.45;;;0.10;;
8187;SDS011;4135;49.184;9.722;2023-05-10T03:45:13;0.47;;;0.10;;
8187;SDS011;4135;49.184;9.722;2023-05-10T03:47:42;0.82;;;0.30;;
8187;SDS011;4135;49.184;9.722;2023-05-10T03:50:12;0.25;;;0.17;;
8187;SDS011;4135;49.184;9.722;2023-05-10T03:52:41;0.10;;;0.10;;
8187;SDS011;4135;49.184;9.722;2023-05-10T03:55:11;2.47;;;0.30;;
8187;SDS011;4135;49.184;9.722;2023-05-10T03:57:40;0.75;;;0.20;;
8187;SDS011;4135;49.184;9.722;2023-05-10T04:00:10;0.17;;;0.10;;
8187;SDS011;4135;49.184;9.722;2023-05-10T04:02:40;0.85;;;0.28;;
8187;SDS011;4135;49.184;9.722;2023-05-10T04:05:09;0.55;;;0.20;;
8187;SDS011;4135;49.184;9.722;2023-05-10T04:07:39;0.22;;;0.20;;
8187;SDS011;4135;49.184;9.722;2023-05-10T04:10:08;0.55;;;0.22;;
8187;SDS011;4135;49.184;9.722;2023-05-10T04:12:38;0.75;;;0.20;;
8187;SDS011;4135;49.184;9.722;2023-05-10T04:15:07;0.40;;;0.10;;
8187;SDS011;4135;49.184;9.722;2023-05-10T04:17:37;0.20;;;0.10;;
8187;SDS011;4135;49.184;9.722;2023-05-10T04:20:07;0.40;;;0.20;;
8187;SDS011;4135;49.184;9.722;2023-05-10T04:22:37;0.10;;;0.10;;
8187;SDS011;4135;49.184;9.722;2023-05-10T04:25:07;0.10;;;0.05;;
8187;SDS011;4135;49.184;9.722;2023-05-10T04:27:37;1.40;;;0.30;;
8187;SDS011;4135;49.184;9.722;2023-05-10T04:30:06;0.57;;;0.47;;
8187;SDS011;4135;49.184;9.722;2023-05-10T04:32:36;1.10;;;0.22;;
8187;SDS011;4135;49.184;9.722;2023-05-10T04:35:06;0.85;;;0.20;;
8187;SDS011;4135;49.184;9.722;2023-05-10T04:37:35;0.20;;;0.20;;
8187;SDS011;4135;49.184;9.722;2023-05-10T04:40:05;0.88;;;0.38;;
8187;SDS011;4135;49.184;9.722;2023-05-10T04:42:35;0.93;;;0.10;;
8187;SDS011;4135;49.184;9.722;2023-05-10T04:45:05;1.15;;;0.17;;
8187;SDS011;4135;49.184;9.722;2023-05-10T04:47:35;0.40;;;0.20;;
8187;SDS011;4135;49.184;9.722;2023-05-10T04:50:06;0.60;;;0.20;;
8187;SDS011;4135;49.184;9.722;2023-05-10T04:52:36;2.38;;;0.40;;
8187;SDS011;4135;49.184;9.722;2023-05-10T04:55:05;1.48;;;0.28;;
8187;SDS011;4135;49.184;9.722;2023-05-10T04:57:38;0.88;;;0.60;;
8187;SDS011;4135;49.184;9.722;2023-05-10T05:00:08;2.65;;;0.50;;
8187;SDS011;4135;49.184;9.722;2023-05-10T05:02:38;3.38;;;0.63;;
8187;SDS011;4135;49.184;9.722;2023-05-10T05:05:07;3.17;;;0.75;;
8187;SDS011;4135;49.184;9.722;2023-05-10T05:07:37;3.85;;;0.40;;
8187;SDS011;4135;49.184;9.722;2023-05-10T05:10:09;7.75;;;0.80;;
8187;SDS011;4135;49.184;9.722;2023-05-10T05:12:39;3.15;;;0.90;;
8187;SDS011;4135;49.184;9.722;2023-05-10T05:15:09;3.88;;;0.75;;
8187;SDS011;4135;49.184;9.722;2023-05-10T05:17:39;3.70;;;0.57;;
8187;SDS011;4135;49.184;9.722;2023-05-10T05:20:10;4.55;;;0.47;;
8187;SDS011;4135;49.184;9.722;2023-05-10T05:22:39;1.15;;;0.20;;
8187;SDS011;4135;49.184;9.722;2023-05-10T05:25:09;1.42;;;0.45;;
8187;SDS011;4135;49.184;9.722;2023-05-10T05:27:38;0.40;;;0.32;;
8187;SDS011;4135;49.184;9.722;2023-05-10T05:30:08;0.63;;;0.38;;
8187;SDS011;4135;49.184;9.722;2023-05-10T05:32:38;0.93;;;0.40;;
8187;SDS011;4135;49.184;9.722;2023-05-10T05:35:08;0.75;;;0.38;;
8187;SDS011;4135;49.184;9.722;2023-05-10T05:37:37;2.80;;;0.28;;
8187;SDS011;4135;49.184;9.722;2023-05-10T05:40:07;0.80;;;0.40;;
8187;SDS011;4135;49.184;9.722;2023-05-10T05:42:37;2.25;;;0.38;;
8187;SDS011;4135;49.184;9.722;2023-05-10T05:45:07;1.00;;;0.25;;
8187;SDS011;4135;49.184;9.722;2023-05-10T05:47:37;1.55;;;0.40;;
8187;SDS011;4135;49.184;9.722;2023-05-10T05:50:07;0.45;;;0.40;;
8187;SDS011;4135;49.184;9.722;2023-05-10T05:52:37;0.68;;;0.28;;
8187;SDS011;4135;49.184;9.722;2023-05-10T05:55:07;1.35;;;0.40;;
8187;SDS011;4135;49.184;9.722;2023-05-10T05:57:36;0.82;;;0.30;;
8187;SDS011;4135;49.184;9.722;2023-05-10T06:00:06;1.30;;;0.40;;
8187;SDS011;4135;49.184;9.722;2023-05-10T06:02:36;0.38;;;0.30;;
8187;SDS011;4135;49.184;9.722;2023-05-10T06:05:06;1.48;;;0.32;;
8187;SDS011;4135;49.184;9.722;2023-05-10T06:07:36;0.57;;;0.40;;
8187;SDS011;4135;49.184;9.722;2023-05-10T06:10:06;0.70;;;0.50;;
8187;SDS011;4135;49.184;9.722;2023-05-10T06:12:36;2.47;;;0.60;;
8187;SDS011;4135;49.184;9.722;2023-05-10T06:15:05;0.60;;;0.43;;
8187;SDS011;4135;49.184;9.722;2023-05-10T06:17:35;2.65;;;0.63;;
8187;SDS011;4135;49.184;9.722;2023-05-10T06:20:05;1.02;;;0.57;;
8187;SDS011;4135;49.184;9.722;2023-05-10T06:22:35;1.25;;;0.70;;
8187;SDS011;4135;49.184;9.722;2023-05-10T06:25:05;2.78;;;0.68;;
8187;SDS011;4135;49.184;9.722;2023-05-10T06:27:34;0.93;;;0.45;;
8187;SDS011;4135;49.184;9.722;2023-05-10T06:30:04;0.77;;;0.43;;
8187;SDS011;4135;49.184;9.722;2023-05-10T06:32:34;1.00;;;0.43;;
8187;SDS011;4135;49.184;9.722;2023-05-10T06:35:04;1.08;;;0.68;;
8187;SDS011;4135;49.184;9.722;2023-05-10T06:37:34;0.85;;;0.60;;
8187;SDS011;4135;49.184;9.722;2023-05-10T06:40:04;1.80;;;0.63;;
8187;SDS011;4135;49.184;9.722;2023-05-10T06:42:34;3.85;;;0.47;;
8187;SDS011;4135;49.184;9.722;2023-05-10T06:45:04;0.95;;;0.40;;
8187;SDS011;4135;49.184;9.722;2023-05-10T06:47:34;0.45;;;0.40;;
8187;SDS011;4135;49.184;9.722;2023-05-10T06:50:04;1.70;;;0.80;;
8187;SDS011;4135;49.184;9.722;2023-05-10T06:52:34;0.93;;;0.60;;
8187;SDS011;4135;49.184;9.722;2023-05-10T06:55:04;1.42;;;0.82;;
8187;SDS011;4135;49.184;9.722;2023-05-10T06:57:34;2.90;;;1.02;;
8187;SDS011;4135;49.184;9.722;2023-05-10T07:00:04;4.72;;;0.90;;
8187;SDS011;4135;49.184;9.722;2023-05-10T07:02:34;1.27;;;0.80;;
8187;SDS011;4135;49.184;9.722;2023-05-10T07:05:03;0.88;;;0.65;;
8187;SDS011;4135;49.184;9.722;2023-05-10T07:07:33;2.15;;;0.82;;
8187;SDS011;4135;49.184;9.722;2023-05-10T07:10:03;1.33;;;0.73;;
8187;SDS011;4135;49.184;9.722;2023-05-10T07:12:33;5.65;;;1.00;;
8187;SDS011;4135;49.184;9.722;2023-05-10T07:15:03;2.88;;;1.00;;
8187;SDS011;4135;49.184;9.722;2023-05-10T07:17:33;2.25;;;0.98;;
8187;SDS011;4135;49.184;9.722;2023-05-10T07:20:02;3.38;;;0.90;;
8187;SDS011;4135;49.184;9.722;2023-05-10T07:22:32;2.97;;;1.08;;
8187;SDS011;4135;49.184;9.722;2023-05-10T07:25:02;1.55;;;0.95;;
8187;SDS011;4135;49.184;9.722;2023-05-10T07:27:31;3.15;;;0.93;;
8187;SDS011;4135;49.184;9.722;2023-05-10T07:30:01;1.17;;;0.77;;
8187;SDS011;4135;49.184;9.722;2023-05-10T07:32:31;2.63;;;0.90;;
8187;SDS011;4135;49.184;9.722;2023-05-10T07:35:01;2.13;;;0.98;;
8187;SDS011;4135;49.184;9.722;2023-05-10T07:37:30;3.60;;;1.02;;
8187;SDS011;4135;49.184;9.722;2023-05-10T07:40:00;0.95;;;0.73;;
8187;SDS011;4135;49.184;9.722;2023-05-10T07:42:29;2.47;;;0.98;;
8187;SDS011;4135;49.184;9.722;2023-05-10T07:44:59;0.90;;;0.80;;
8187;SDS011;4135;49.184;9.722;2023-05-10T07:47:28;2.63;;;0.85;;
8187;SDS011;4135;49.184;9.722;2023-05-10T07:49:58;4.38;;;1.77;;
8187;SDS011;4135;49.184;9.722;2023-05-10T07:52:27;7.40;;;0.93;;
8187;SDS011;4135;49.184;9.722;2023-05-10T07:54:57;1.05;;;0.73;;
8187;SDS011;4135;49.184;9.722;2023-05-10T07:57:26;3.35;;;0.90;;
8187;SDS011;4135;49.184;9.722;2023-05-10T07:59:56;5.30;;;1.33;;
8187;SDS011;4135;49.184;9.722;2023-05-10T08:02:25;2.60;;;0.82;;
8187;SDS011;4135;49.184;9.722;2023-05-10T08:04:55;4.20;;;0.77;;
8187;SDS011;4135;49.184;9.722;2023-05-10T08:07:24;3.65;;;0.98;;
8187;SDS011;4135;49.184;9.722;2023-05-10T08:09:54;2.25;;;0.70;;
8187;SDS011;4135;49.184;9.722;2023-05-10T08:12:24;5.82;;;0.60;;
8187;SDS011;4135;49.184;9.722;2023-05-10T08:14:53;2.65;;;1.00;;
8187;SDS011;4135;49.184;9.722;2023-05-10T08:17:23;1.23;;;0.45;;
8187;SDS011;4135;49.184;9.722;2023-05-10T08:19:52;0.90;;;0.52;;
8187;SDS011;4135;49.184;9.722;2023-05-10T08:22:22;3.45;;;0.60;;
8187;SDS011;4135;49.184;9.722;2023-05-10T08:24:51;7.15;;;1.05;;
8187;SDS011;4135;49.184;9.722;2023-05-10T08:27:21;2.75;;;1.05;;
8187;SDS011;4135;49.184;9.722;2023-05-10T08:29:50;3.85;;;1.35;;
8187;SDS011;4135;49.184;9.722;2023-05-10T08:32:20;5.68;;;1.27;;
8187;SDS011;4135;49.184;9.722;2023-05-10T08:34:50;4.38;;;1.02;;
8187;SDS011;4135;49.184;9.722;2023-05-10T08:37:19;4.90;;;1.05;;
8187;SDS011;4135;49.184;9.722;2023-05-10T08:39:49;2.80;;;1.15;;
8187;SDS011;4135;49.184;9.722;2023-05-10T08:42:19;3.67;;;0.77;;
8187;SDS011;4135;49.184;9.722;2023-05-10T08:44:51;2.75;;;1.00;;
8187;SDS011;4135;49.184;9.722;2023-05-10T08:47:22;5.82;;;1.23;;
8187;SDS011;4135;49.184;9.722;2023-05-10T08:49:52;0.68;;;0.57;;
8187;SDS011;4135;49.184;9.722;2023-05-10T08:52:22;3.00;;;0.65;;
8187;SDS011;4135;49.184;9.722;2023-05-10T08:54:55;1.45;;;0.80;;
8187;SDS011;4135;49.184;9.722;2023-05-10T08:57:25;2.78;;;0.80;;
8187;SDS011;4135;49.184;9.722;2023-05-10T08:59:55;4.60;;;0.85;;
8187;SDS011;4135;49.184;9.722;2023-05-10T09:02:24;2.55;;;0.55;;
8187;SDS011;4135;49.184;9.722;2023-05-10T09:04:54;1.90;;;1.02;;
8187;SDS011;4135;49.184;9.722;2023-05-10T09:07:24;2.78;;;0.88;;
8187;SDS011;4135;49.184;9.722;2023-05-10T09:09:54;4.47;;;1.10;;
8187;SDS011;4135;49.184;9.722;2023-05-10T09:12:24;6.30;;;3.10;;
8187;SDS011;4135;49.184;9.722;2023-05-10T09:14:53;15.15;;;7.10;;
8187;SDS011;4135;49.184;9.722;2023-05-10T09:17:24;26.77;;;8.27;;
8187;SDS011;4135;49.184;9.722;2023-05-10T09:19:58;24.17;;;8.30;;
8187;SDS011;4135;49.184;9.722;2023-05-10T09:22:28;16.67;;;6.90;;
8187;SDS011;4135;49.184;9.722;2023-05-10T09:27:40;12.05;;;5.63;;
8187;SDS011;4135;49.184;9.722;2023-05-10T09:30:16;8.70;;;4.80;;
8187;SDS011;4135;49.184;9.722;2023-05-10T09:32:52;17.63;;;5.60;;
8187;SDS011;4135;49.184;9.722;2023-05-10T09:35:23;11.98;;;4.47;;
8187;SDS011;4135;49.184;9.722;2023-05-10T09:37:55;12.68;;;4.45;;
8187;SDS011;4135;49.184;9.722;2023-05-10T09:40:27;10.23;;;4.43;;
8187;SDS011;4135;49.184;9.722;2023-05-10T09:42:58;8.98;;;4.03;;
8187;SDS011;4135;49.184;9.722;2023-05-10T09:45:48;11.27;;;4.38;;
8187;SDS011;4135;49.184;9.722;2023-05-10T09:48:21;9.13;;;3.38;;
8187;SDS011;4135;49.184;9.722;2023-05-10T09:50:56;5.57;;;1.88;;
8187;SDS011;4135;49.184;9.722;2023-05-10T09:53:26;4.10;;;1.83;;
8187;SDS011;4135;49.184;9.722;2023-05-10T09:55:55;8.05;;;2.15;;
8187;SDS011;4135;49.184;9.722;2023-05-10T09:58:25;6.65;;;2.65;;
8187;SDS011;4135;49.184;9.722;2023-05-10T10:00:55;3.30;;;2.08;;
8187;SDS011;4135;49.184;9.722;2023-05-10T10:03:25;6.50;;;2.13;;
8187;SDS011;4135;49.184;9.722;2023-05-10T10:05:55;3.90;;;2.10;;
8187;SDS011;4135;49.184;9.722;2023-05-10T10:08:24;3.05;;;1.58;;
8187;SDS011;4135;49.184;9.722;2023-05-10T10:10:54;2.05;;;1.50;;
8187;SDS011;4135;49.184;9.722;2023-05-10T10:13:24;5.60;;;1.20;;
8187;SDS011;4135;49.184;9.722;2023-05-10T10:15:54;7.78;;;1.88;;
8187;SDS011;4135;49.184;9.722;2023-05-10T10:18:23;1.95;;;1.42;;
8187;SDS011;4135;49.184;9.722;2023-05-10T10:20:55;2.03;;;1.35;;
8187;SDS011;4135;49.184;9.722;2023-05-10T10:23:25;3.72;;;1.45;;
8187;SDS011;4135;49.184;9.722;2023-05-10T10:25:56;1.88;;;0.88;;
8187;SDS011;4135;49.184;9.722;2023-05-10T10:28:35;1.55;;;1.00;;
8187;SDS011;4135;49.184;9.722;2023-05-10T10:31:15;6.40;;;1.27;;
8187;SDS011;4135;49.184;9.722;2023-05-10T10:34:03;2.60;;;1.27;;
8187;SDS011;4135;49.184;9.722;2023-05-10T10:36:42;3.10;;;1.02;;
8187;SDS011;4135;49.184;9.722;2023-05-10T10:39:14;3.35;;;1.25;;
8187;SDS011;4135;49.184;9.722;2023-05-10T10:41:54;3.55;;;1.25;;
8187;SDS011;4135;49.184;9.722;2023-05-10T10:44:26;2.95;;;1.17;;
8187;SDS011;4135;49.184;9.722;2023-05-10T10:47:03;3.15;;;1.00;;
8187;SDS011;4135;49.184;9.722;2023-05-10T10:55:07;3.78;;;1.20;;
8187;SDS011;4135;49.184;9.722;2023-05-10T11:00:25;2.58;;;1.60;;
8187;SDS011;4135;49.184;9.722;2023-05-10T11:11:05;2.03;;;1.00;;
8187;SDS011;4135;49.184;9.722;2023-05-10T11:13:43;1.25;;;0.70;;
8187;SDS011;4135;49.184;9.722;2023-05-10T11:18:59;1.70;;;0.82;;
8187;SDS011;4135;49.184;9.722;2023-05-10T11:21:33;1.23;;;0.60;;
8187;SDS011;4135;49.184;9.722;2023-05-10T11:24:09;2.50;;;1.33;;
8187;SDS011;4135;49.184;9.722;2023-05-10T11:26:42;6.20;;;0.88;;
8187;SDS011;4135;49.184;9.722;2023-05-10T11:29:12;2.78;;;0.95;;
8187;SDS011;4135;49.184;9.722;2023-05-10T11:31:43;7.60;;;1.23;;
8187;SDS011;4135;49.184;9.722;2023-05-10T11:34:27;4.97;;;1.20;;
8187;SDS011;4135;49.184;9.722;2023-05-10T11:37:07;8.32;;;1.30;;
8187;SDS011;4135;49.184;9.722;2023-05-10T11:39:36;3.83;;;0.93;;
8187;SDS011;4135;49.184;9.722;2023-05-10T11:42:05;6.53;;;1.65;;
8187;SDS011;4135;49.184;9.722;2023-05-10T11:44:38;2.75;;;1.25;;
8187;SDS011;4135;49.184;9.722;2023-05-10T11:47:07;0.50;;;0.43;;
8187;SDS011;4135;49.184;9.722;2023-05-10T11:49:37;8.38;;;1.45;;
8187;SDS011;4135;49.184;9.722;2023-05-10T11:52:07;5.70;;;1.27;;
8187;SDS011;4135;49.184;9.722;2023-05-10T11:54:37;2.20;;;0.60;;
8187;SDS011;4135;49.184;9.722;2023-05-10T11:57:06;7.13;;;0.93;;
8187;SDS011;4135;49.184;9.722;2023-05-10T11:59:36;6.30;;;0.82;;
8187;SDS011;4135;49.184;9.722;2023-05-10T12:02:05;5.90;;;0.85;;
8187;SDS011;4135;49.184;9.722;2023-05-10T12:04:35;2.90;;;1.00;;
8187;SDS011;4135;49.184;9.722;2023-05-10T12:07:05;4.18;;;0.65;;
8187;SDS011;4135;49.184;9.722;2023-05-10T12:09:34;4.20;;;0.52;;
8187;SDS011;4135;49.184;9.722;2023-05-10T12:12:04;4.28;;;1.10;;
8187;SDS011;4135;49.184;9.722;2023-05-10T12:14:34;6.88;;;0.85;;
8187;SDS011;4135;49.184;9.722;2023-05-10T12:17:04;3.13;;;0.57;;
8187;SDS011;4135;49.184;9.722;2023-05-10T12:19:37;2.53;;;0.70;;
8187;SDS011;4135;49.184;9.722;2023-05-10T12:22:07;1.10;;;0.50;;
8187;SDS011;4135;49.184;9.722;2023-05-10T12:24:37;1.92;;;0.60;;
8187;SDS011;4135;49.184;9.722;2023-05-10T12:27:07;2.03;;;0.45;;
8187;SDS011;4135;49.184;9.722;2023-05-10T12:29:40;2.20;;;0.52;;
8187;SDS011;4135;49.184;9.722;2023-05-10T12:32:12;3.10;;;0.88;;
8187;SDS011;4135;49.184;9.722;2023-05-10T12:34:42;5.85;;;0.95;;
8187;SDS011;4135;49.184;9.722;2023-05-10T12:37:11;1.52;;;0.77;;
8187;SDS011;4135;49.184;9.722;2023-05-10T12:39:42;1.40;;;0.50;;
8187;SDS011;4135;49.184;9.722;2023-05-10T12:42:13;1.75;;;0.25;;
8187;SDS011;4135;49.184;9.722;2023-05-10T12:44:42;2.33;;;0.60;;
8187;SDS011;4135;49.184;9.722;2023-05-10T12:47:11;2.22;;;0.65;;
8187;SDS011;4135;49.184;9.722;2023-05-10T12:49:41;4.43;;;0.63;;
8187;SDS011;4135;49.184;9.722;2023-05-10T12:52:11;3.20;;;0.60;;
8187;SDS011;4135;49.184;9.722;2023-05-10T12:54:40;5.68;;;0.80;;
8187;SDS011;4135;49.184;9.722;2023-05-10T12:57:10;1.48;;;0.43;;
8187;SDS011;4135;49.184;9.722;2023-05-10T12:59:39;5.95;;;0.70;;
8187;SDS011;4135;49.184;9.722;2023-05-10T13:02:09;5.40;;;0.68;;
8187;SDS011;4135;49.184;9.722;2023-05-10T13:04:39;2.55;;;0.82;;
8187;SDS011;4135;49.184;9.722;2023-05-10T13:07:08;4.18;;;0.95;;
8187;SDS011;4135;49.184;9.722;2023-05-10T13:09:39;5.25;;;0.75;;
8187;SDS011;4135;49.184;9.722;2023-05-10T13:12:09;1.30;;;0.70;;
8187;SDS011;4135;49.184;9.722;2023-05-10T13:14:38;2.40;;;0.68;;
8187;SDS011;4135;49.184;9.722;2023-05-10T13:17:09;2.50;;;0.80;;
8187;SDS011;4135;49.184;9.722;2023-05-10T13:19:39;1.92;;;0.77;;
8187;SDS011;4135;49.184;9.722;2023-05-10T13:22:08;3.03;;;0.60;;
8187;SDS011;4135;49.184;9.722;2023-05-10T13:24:38;2.80;;;0.93;;
8187;SDS011;4135;49.184;9.722;2023-05-10T13:27:07;1.40;;;0.77;;
8187;SDS011;4135;49.184;9.722;2023-05-10T13:29:37;1.80;;;0.80;;
8187;SDS011;4135;49.184;9.722;2023-05-10T13:32:07;5.03;;;1.05;;
8187;SDS011;4135;49.184;9.722;2023-05-10T13:34:36;5.10;;;1.20;;
8187;SDS011;4135;49.184;9.722;2023-05-10T13:37:06;2.25;;;0.85;;
8187;SDS011;4135;49.184;9.722;2023-05-10T13:39:35;4.90;;;1.02;;
8187;SDS011;4135;49.184;9.722;2023-05-10T13:42:06;2.00;;;0.80;;
8187;SDS011;4135;49.184;9.722;2023-05-10T13:44:35;4.03;;;1.15;;
8187;SDS011;4135;49.184;9.722;2023-05-10T13:47:07;3.97;;;1.30;;
8187;SDS011;4135;49.184;9.722;2023-05-10T13:49:37;3.88;;;1.10;;
8187;SDS011;4135;49.184;9.722;2023-05-10T13:52:06;2.05;;;1.13;;
8187;SDS011;4135;49.184;9.722;2023-05-10T13:54:36;4.50;;;1.25;;
8187;SDS011;4135;49.184;9.722;2023-05-10T13:57:06;3.42;;;1.23;;
8187;SDS011;4135;49.184;9.722;2023-05-10T13:59:36;2.10;;;0.95;;
8187;SDS011;4135;49.184;9.722;2023-05-10T14:02:06;6.45;;;1.35;;
8187;SDS011;4135;49.184;9.722;2023-05-10T14:04:35;3.40;;;1.23;;
8187;SDS011;4135;49.184;9.722;2023-05-10T14:07:05;7.57;;;1.80;;
8187;SDS011;4135;49.184;9.722;2023-05-10T14:09:34;4.38;;;1.50;;
8187;SDS011;4135;49.184;9.722;2023-05-10T14:12:04;4.97;;;1.52;;
8187;SDS011;4135;49.184;9.722;2023-05-10T14:14:34;6.45;;;1.05;;
8187;SDS011;4135;49.184;9.722;2023-05-10T14:17:03;2.50;;;1.00;;
8187;SDS011;4135;49.184;9.722;2023-05-10T14:19:33;5.35;;;1.17;;
8187;SDS011;4135;49.184;9.722;2023-05-10T14:22:03;8.15;;;1.13;;
8187;SDS011;4135;49.184;9.722;2023-05-10T14:24:32;1.98;;;1.13;;
8187;SDS011;4135;49.184;9.722;2023-05-10T14:27:02;2.28;;;1.15;;
8187;SDS011;4135;49.184;9.722;2023-05-10T14:29:31;6.50;;;1.30;;
8187;SDS011;4135;49.184;9.722;2023-05-10T14:32:01;5.72;;;1.27;;
8187;SDS011;4135;49.184;9.722;2023-05-10T14:34:31;3.33;;;1.48;;
8187;SDS011;4135;49.184;9.722;2023-05-10T14:37:01;3.90;;;1.20;;
8187;SDS011;4135;49.184;9.722;2023-05-10T14:39:31;2.55;;;1.42;;
8187;SDS011;4135;49.184;9.722;2023-05-10T14:42:00;5.32;;;0.90;;
8187;SDS011;4135;49.184;9.722;2023-05-10T14:44:31;3.78;;;1.50;;
8187;SDS011;4135;49.184;9.722;2023-05-10T14:47:00;6.03;;;1.25;;
8187;SDS011;4135;49.184;9.722;2023-05-10T14:49:30;1.92;;;0.93;;
8187;SDS011;4135;49.184;9.722;2023-05-10T14:52:00;3.90;;;1.38;;
8187;SDS011;4135;49.184;9.722;2023-05-10T14:54:29;3.22;;;1.45;;
8187;SDS011;4135;49.184;9.722;2023-05-10T14:56:59;1.88;;;1.00;;
8187;SDS011;4135;49.184;9.722;2023-05-10T14:59:29;3.58;;;1.13;;
8187;SDS011;4135;49.184;9.722;2023-05-10T15:01:59;4.05;;;1.35;;
8187;SDS011;4135;49.184;9.722;2023-05-10T15:04:28;4.60;;;0.85;;
8187;SDS011;4135;49.184;9.722;2023-05-10T15:06:58;4.72;;;1.00;;
8187;SDS011;4135;49.184;9.722;2023-05-10T15:09:28;6.22;;;0.95;;
8187;SDS011;4135;49.184;9.722;2023-05-10T15:11:57;5.40;;;1.48;;
8187;SDS011;4135;49.184;9.722;2023-05-10T15:14:27;4.00;;;0.80;;
8187;SDS011;4135;49.184;9.722;2023-05-10T15:16:56;4.68;;;1.58;;
8187;SDS011;4135;49.184;9.722;2023-05-10T15:19:26;2.92;;;0.88;;
8187;SDS011;4135;49.184;9.722;2023-05-10T15:21:57;3.55;;;1.00;;
8187;SDS011;4135;49.184;9.722;2023-05-10T15:24:27;5.28;;;0.95;;
8187;SDS011;4135;49.184;9.722;2023-05-10T15:26:56;1.33;;;0.55;;
8187;SDS011;4135;49.184;9.722;2023-05-10T15:29:26;2.45;;;1.02;;
8187;SDS011;4135;49.184;9.722;2023-05-10T15:31:55;4.47;;;0.98;;
8187;SDS011;4135;49.184;9.722;2023-05-10T15:34:25;1.35;;;0.77;;
8187;SDS011;4135;49.184;9.722;2023-05-10T15:36:54;2.00;;;0.70;;
8187;SDS011;4135;49.184;9.722;2023-05-10T15:39:24;0.77;;;0.77;;
8187;SDS011;4135;49.184;9.722;2023-05-10T15:41:53;2.08;;;0.77;;
8187;SDS011;4135;49.184;9.722;2023-05-10T15:44:23;1.98;;;0.65;;
8187;SDS011;4135;49.184;9.722;2023-05-10T15:46:53;3.63;;;0.93;;
8187;SDS011;4135;49.184;9.722;2023-05-10T15:49:22;2.10;;;0.90;;
8187;SDS011;4135;49.184;9.722;2023-05-10T15:51:52;2.60;;;0.90;;
8187;SDS011;4135;49.184;9.722;2023-05-10T15:54:21;2.08;;;1.05;;
8187;SDS011;4135;49.184;9.722;2023-05-10T15:56:51;1.20;;;0.70;;
8187;SDS011;4135;49.184;9.722;2023-05-10T15:59:22;5.90;;;0.95;;
8187;SDS011;4135;49.184;9.722;2023-05-10T16:01:52;2.30;;;0.93;;
8187;SDS011;4135;49.184;9.722;2023-05-10T16:04:22;1.20;;;0.73;;
8187;SDS011;4135;49.184;9.722;2023-05-10T16:06:51;3.10;;;1.25;;
8187;SDS011;4135;49.184;9.722;2023-05-10T16:09:21;9.57;;;1.55;;
8187;SDS011;4135;49.184;9.722;2023-05-10T16:11:50;2.50;;;0.90;;
8187;SDS011;4135;49.184;9.722;2023-05-10T16:14:20;3.63;;;0.70;;
8187;SDS011;4135;49.184;9.722;2023-05-10T16:16:52;2.22;;;0.90;;